createdAt,value
2022-07-30T00:01:21.205Z,7.50
2022-07-30T00:03:49.564Z,7.90
2022-07-30T00:06:19.865Z,7.80
2022-07-30T00:08:48.120Z,7.55
2022-07-30T00:11:16.423Z,7.68
2022-07-30T00:13:45.987Z,7.32
2022-07-30T00:16:14.523Z,8.40
2022-07-30T00:18:42.788Z,7.70
2022-07-30T00:21:11.269Z,7.45
2022-07-30T00:24:01.364Z,8.35
2022-07-30T00:26:30.415Z,8.77
2022-07-30T00:29:00.145Z,8.95
2022-07-30T00:31:30.570Z,8.20
2022-07-30T00:33:58.824Z,8.52
2022-07-30T00:36:27.188Z,8.73
2022-07-30T00:38:55.411Z,8.65
2022-07-30T00:41:24.329Z,8.80
2022-07-30T00:43:55.126Z,8.55
2022-07-30T00:46:25.090Z,8.40
2022-07-30T00:48:53.535Z,8.13
2022-07-30T00:51:21.868Z,8.32
2022-07-30T00:53:50.178Z,9.30
2022-07-30T00:56:18.428Z,8.75
2022-07-30T00:58:46.654Z,9.57
2022-07-30T01:01:14.921Z,10.00
2022-07-30T01:03:44.648Z,9.68
2022-07-30T01:06:14.330Z,10.40
2022-07-30T01:08:43.370Z,10.60
2022-07-30T01:11:12.694Z,10.20
2022-07-30T01:13:44.629Z,12.48
2022-07-30T01:16:14.503Z,12.32
2022-07-30T01:19:05.531Z,13.30
2022-07-30T01:21:39.325Z,12.20
2022-07-30T01:24:26.825Z,12.15
2022-07-30T01:26:58.787Z,11.93
2022-07-30T01:29:30.318Z,11.77
2022-07-30T01:32:01.045Z,11.55
2022-07-30T01:34:33.743Z,11.50
2022-07-30T01:37:05.961Z,11.35
2022-07-30T01:39:36.216Z,12.93
2022-07-30T01:42:09.269Z,11.65
2022-07-30T01:44:41.653Z,12.23
2022-07-30T01:47:14.405Z,11.70
2022-07-30T01:49:43.660Z,12.48
2022-07-30T01:52:13.347Z,11.77
2022-07-30T01:54:45.371Z,11.98
2022-07-30T01:57:17.541Z,13.23
2022-07-30T01:59:52.859Z,13.40
2022-07-30T02:02:21.836Z,12.40
2022-07-30T02:04:51.135Z,14.07
2022-07-30T02:07:28.611Z,13.90
2022-07-30T02:10:06.104Z,13.95
2022-07-30T02:12:49.814Z,13.25
2022-07-30T02:15:30.674Z,14.35
2022-07-30T02:18:08.946Z,15.45
2022-07-30T02:20:44.304Z,15.48
2022-07-30T02:23:20.543Z,16.10
2022-07-30T02:25:52.749Z,15.80
2022-07-30T02:28:27.690Z,15.98
2022-07-30T02:31:01.053Z,16.58
2022-07-30T02:33:49.164Z,17.60
2022-07-30T02:36:20.905Z,17.00
2022-07-30T02:38:52.418Z,17.38
2022-07-30T02:41:24.818Z,17.77
2022-07-30T02:43:57.787Z,17.60
2022-07-30T02:46:27.535Z,17.75
2022-07-30T02:49:18.721Z,18.58
2022-07-30T02:51:49.284Z,17.77
2022-07-30T02:54:21.114Z,18.75
2022-07-30T02:56:52.814Z,18.30
2022-07-30T02:59:27.185Z,16.88
2022-07-30T03:01:57.627Z,18.05
2022-07-30T03:04:29.149Z,17.02
2022-07-30T03:06:58.149Z,18.55
2022-07-30T03:09:27.816Z,17.45
2022-07-30T03:12:17.493Z,17.65
2022-07-30T03:14:47.189Z,18.52
2022-07-30T03:17:18.927Z,18.13
2022-07-30T03:19:50.457Z,17.58
2022-07-30T03:22:21.113Z,18.35
2022-07-30T03:24:51.581Z,18.08
2022-07-30T03:27:20.905Z,18.17
2022-07-30T03:29:54.667Z,18.00
2022-07-30T03:32:26.181Z,18.20
2022-07-30T03:34:56.528Z,17.00
2022-07-30T03:37:27.531Z,20.33
2022-07-30T03:39:59.550Z,19.38
2022-07-30T03:42:30.008Z,18.55
2022-07-30T03:45:02.108Z,18.58
2022-07-30T03:47:34.607Z,19.77
2022-07-30T03:50:04.739Z,20.35
2022-07-30T03:52:36.423Z,19.25
2022-07-30T03:55:12.778Z,19.38
2022-07-30T03:57:50.256Z,19.52
2022-07-30T04:00:22.629Z,18.52
2022-07-30T04:02:54.469Z,20.20
2022-07-30T04:05:41.191Z,19.88
2022-07-30T04:08:10.485Z,19.92
2022-07-30T04:10:39.978Z,18.98
2022-07-30T04:13:33.629Z,19.52
2022-07-30T04:16:40.983Z,20.35
2022-07-30T04:19:08.927Z,19.15
2022-07-30T04:21:39.617Z,18.98
2022-07-30T04:24:10.674Z,20.02
2022-07-30T04:26:40.808Z,19.77
2022-07-30T04:29:17.264Z,19.88
2022-07-30T04:31:48.517Z,20.35
2022-07-30T04:34:37.185Z,21.00
2022-07-30T04:37:09.323Z,20.30
2022-07-30T04:39:37.662Z,20.38
2022-07-30T04:42:06.058Z,20.70
2022-07-30T04:44:38.498Z,21.80
2022-07-30T04:47:46.279Z,20.92
2022-07-30T04:50:47.083Z,22.02
2022-07-30T04:53:19.742Z,22.23
2022-07-30T04:55:59.117Z,20.65
2022-07-30T04:58:30.905Z,21.50
2022-07-30T05:01:01.367Z,21.20
2022-07-30T05:03:36.417Z,21.75
2022-07-30T05:06:07.379Z,22.13
2022-07-30T05:08:39.814Z,20.98
2022-07-30T05:11:13.495Z,19.88
2022-07-30T05:13:46.173Z,19.75
2022-07-30T05:16:16.001Z,19.65
2022-07-30T05:18:46.918Z,20.33
2022-07-30T05:21:15.158Z,20.90
2022-07-30T05:23:50.145Z,20.65
2022-07-30T05:26:54.741Z,20.40
2022-07-30T05:29:24.190Z,19.95
2022-07-30T05:31:59.066Z,19.50
2022-07-30T05:34:34.130Z,19.50
2022-07-30T05:37:02.890Z,17.88
2022-07-30T05:39:32.129Z,19.77
2022-07-30T05:42:20.384Z,16.77
2022-07-30T05:44:51.118Z,16.20
2022-07-30T05:47:21.080Z,16.35
2022-07-30T05:49:53.169Z,16.75
2022-07-30T05:52:21.406Z,16.55
2022-07-30T05:54:49.952Z,15.68
2022-07-30T05:57:50.709Z,16.30
2022-07-30T06:00:19.780Z,15.25
2022-07-30T06:02:54.715Z,14.50
2022-07-30T06:05:47.411Z,13.93
2022-07-30T06:08:16.047Z,13.05
2022-07-30T06:10:44.431Z,13.73
2022-07-30T06:13:13.617Z,12.20
2022-07-30T06:15:42.197Z,12.18
2022-07-30T06:18:10.748Z,11.23
2022-07-30T06:20:46.540Z,10.80
2022-07-30T06:23:43.781Z,9.57
2022-07-30T06:26:19.775Z,8.80
2022-07-30T06:28:48.915Z,8.20
2022-07-30T06:31:22.351Z,8.00
2022-07-30T06:33:50.740Z,8.07
2022-07-30T06:36:20.445Z,7.47
2022-07-30T06:39:11.804Z,7.47
2022-07-30T06:42:08.861Z,7.03
2022-07-30T06:45:03.738Z,6.78
2022-07-30T06:47:52.016Z,7.55
2022-07-30T06:50:20.600Z,8.38
2022-07-30T06:52:50.251Z,7.75
2022-07-30T06:55:19.141Z,7.60
2022-07-30T06:57:51.855Z,7.45
2022-07-30T07:00:46.090Z,7.05
2022-07-30T07:03:15.648Z,7.13
2022-07-30T07:05:44.275Z,6.72
2022-07-30T07:08:14.029Z,6.30
2022-07-30T07:10:48.952Z,6.53
2022-07-30T07:13:26.525Z,6.28
2022-07-30T07:15:55.386Z,6.10
2022-07-30T07:18:25.458Z,5.90
2022-07-30T07:21:02.482Z,5.72
2022-07-30T07:23:36.455Z,5.40
2022-07-30T07:26:32.145Z,6.03
2022-07-30T07:29:04.986Z,5.63
2022-07-30T07:32:06.325Z,5.70
2022-07-30T07:34:23.003Z,6.00
2022-07-30T07:36:51.358Z,5.60
2022-07-30T07:39:21.089Z,4.88
2022-07-30T07:41:50.653Z,4.13
2022-07-30T07:44:24.333Z,3.92
2022-07-30T07:46:52.928Z,4.47
2022-07-30T07:49:22.022Z,4.22
2022-07-30T07:51:52.713Z,3.88
2022-07-30T07:54:23.552Z,4.20
2022-07-30T07:56:56.742Z,3.90
2022-07-30T07:59:40.640Z,3.40
2022-07-30T08:02:17.918Z,3.58
2022-07-30T08:05:00.815Z,3.72
2022-07-30T08:07:49.064Z,3.72
2022-07-30T08:10:44.510Z,3.70
2022-07-30T08:13:48.564Z,3.90
2022-07-30T08:16:23.246Z,3.70
2022-07-30T08:19:10.973Z,3.50
2022-07-30T08:21:41.755Z,3.40
2022-07-30T08:24:11.242Z,3.50
2022-07-30T08:26:40.845Z,3.70
2022-07-30T08:29:13.037Z,4.13
2022-07-30T08:31:45.512Z,4.25
2022-07-30T08:34:14.422Z,3.80
2022-07-30T08:36:43.339Z,3.72
2022-07-30T08:39:11.711Z,3.90
2022-07-30T08:41:43.773Z,4.22
2022-07-30T08:44:13.551Z,4.28
2022-07-30T08:46:47.233Z,4.18
2022-07-30T08:49:47.188Z,3.88
2022-07-30T08:52:16.595Z,4.40
2022-07-30T08:54:56.752Z,4.40
2022-07-30T08:57:26.874Z,4.90
2022-07-30T09:00:00.609Z,4.70
2022-07-30T09:02:33.207Z,4.85
2022-07-30T09:05:07.489Z,4.68
2022-07-30T09:07:37.243Z,5.15
2022-07-30T09:10:11.530Z,4.60
2022-07-30T09:12:44.397Z,4.32
2022-07-30T09:15:16.736Z,4.78
2022-07-30T09:18:04.547Z,5.03
2022-07-30T09:20:38.247Z,4.90
2022-07-30T09:23:10.013Z,5.13
2022-07-30T09:25:41.364Z,5.30
2022-07-30T09:28:33.113Z,5.40
2022-07-30T09:31:24.013Z,4.78
2022-07-30T09:34:26.895Z,4.40
2022-07-30T09:36:59.500Z,4.10
2022-07-30T09:39:59.376Z,4.20
2022-07-30T09:43:05.358Z,3.90
2022-07-30T09:45:36.373Z,3.90
2022-07-30T09:48:23.965Z,3.55
2022-07-30T09:50:53.443Z,3.40
2022-07-30T09:53:23.494Z,3.47
2022-07-30T09:55:52.724Z,3.42
2022-07-30T09:58:26.969Z,3.20
2022-07-30T10:01:00.418Z,3.10
2022-07-30T10:03:44.312Z,2.67
2022-07-30T10:06:44.254Z,2.95
2022-07-30T10:09:29.703Z,2.70
2022-07-30T10:12:02.575Z,2.78
2022-07-30T10:14:42.746Z,2.45
2022-07-30T10:17:17.698Z,2.63
2022-07-30T10:20:15.654Z,2.70
2022-07-30T10:23:07.906Z,2.40
2022-07-30T10:25:48.907Z,2.30
2022-07-30T10:28:43.572Z,2.08
2022-07-30T10:31:49.440Z,2.67
2022-07-30T10:34:03.202Z,2.67
2022-07-30T10:36:32.999Z,2.35
2022-07-30T10:39:02.822Z,2.40
2022-07-30T10:41:53.974Z,2.50
2022-07-30T10:44:53.548Z,2.40
2022-07-30T10:47:29.855Z,2.40
2022-07-30T10:50:11.719Z,2.38
2022-07-30T10:52:52.675Z,2.20
2022-07-30T10:55:36.482Z,2.00
2022-07-30T10:58:09.286Z,2.10
2022-07-30T11:01:01.562Z,2.22
2022-07-30T11:03:41.611Z,2.08
2022-07-30T11:06:30.345Z,2.10
2022-07-30T11:08:59.163Z,2.00
2022-07-30T11:12:05.484Z,1.95
2022-07-30T11:15:06.430Z,1.50
2022-07-30T11:18:12.557Z,1.50
2022-07-30T11:20:47.681Z,1.60
2022-07-30T11:23:41.077Z,1.80
2022-07-30T11:26:14.259Z,1.55
2022-07-30T11:28:49.274Z,1.70
2022-07-30T11:31:57.925Z,1.73
2022-07-30T11:34:31.118Z,1.88
2022-07-30T11:37:19.303Z,2.10
2022-07-30T11:40:11.852Z,1.80
2022-07-30T11:42:43.171Z,1.80
2022-07-30T11:45:30.603Z,2.10
2022-07-30T11:48:03.303Z,1.70
2022-07-30T11:50:34.388Z,4.55
2022-07-30T11:53:07.203Z,1.80
2022-07-30T11:55:39.931Z,1.90
2022-07-30T11:58:10.687Z,1.70
2022-07-30T12:00:41.478Z,1.92
2022-07-30T12:03:15.410Z,1.73
2022-07-30T12:05:44.920Z,1.90
2022-07-30T12:08:31.970Z,1.60
2022-07-30T12:11:05.888Z,1.80
2022-07-30T12:13:43.886Z,2.25
2022-07-30T12:16:17.362Z,1.70
2022-07-30T12:18:47.285Z,1.73
2022-07-30T12:21:16.824Z,1.90
2022-07-30T12:23:56.477Z,1.70
2022-07-30T12:26:29.423Z,1.77
2022-07-30T12:28:59.409Z,1.60
2022-07-30T12:31:28.362Z,1.70
2022-07-30T12:33:58.289Z,1.70
2022-07-30T12:36:33.496Z,1.83
2022-07-30T12:39:04.889Z,1.90
2022-07-30T12:41:45.762Z,1.50
2022-07-30T12:44:35.680Z,1.70
2022-07-30T12:47:05.926Z,1.80
2022-07-30T12:49:39.362Z,1.70
2022-07-30T12:52:29.347Z,1.80
2022-07-30T12:55:02.730Z,2.03
2022-07-30T12:57:54.178Z,1.63
2022-07-30T13:00:23.874Z,1.45
2022-07-30T13:02:52.350Z,1.63
2022-07-30T13:05:20.846Z,1.75
2022-07-30T13:08:01.462Z,1.70
2022-07-30T13:10:31.532Z,1.70
2022-07-30T13:13:02.362Z,1.70
2022-07-30T13:15:30.730Z,1.90
2022-07-30T13:17:58.987Z,2.00
2022-07-30T13:20:27.614Z,2.00
2022-07-30T13:23:00.113Z,1.73
2022-07-30T13:25:38.742Z,2.15
2022-07-30T13:28:09.981Z,1.63
2022-07-30T13:30:38.361Z,1.75
2022-07-30T13:33:06.592Z,1.77
2022-07-30T13:35:35.201Z,1.65
2022-07-30T13:38:03.527Z,2.00
2022-07-30T13:40:32.699Z,1.90
2022-07-30T13:43:02.583Z,1.60
2022-07-30T13:45:32.294Z,1.60
2022-07-30T13:48:00.552Z,1.85
2022-07-30T13:50:28.916Z,1.88
2022-07-30T13:53:01.812Z,2.03
2022-07-30T13:55:30.723Z,1.90
2022-07-30T13:57:59.837Z,2.10
2022-07-30T14:00:32.453Z,1.83
2022-07-30T14:03:04.265Z,1.90
2022-07-30T14:05:33.847Z,1.85
2022-07-30T14:08:02.050Z,2.13
2022-07-30T14:10:30.697Z,1.90
2022-07-30T14:12:59.974Z,2.03
2022-07-30T14:15:31.775Z,2.05
2022-07-30T14:18:02.379Z,1.83
2022-07-30T14:20:31.145Z,2.03
2022-07-30T14:22:59.725Z,1.95
2022-07-30T14:25:28.097Z,1.90
2022-07-30T14:27:56.718Z,2.00
2022-07-30T14:30:25.127Z,2.00
2022-07-30T14:32:59.192Z,1.98
2022-07-30T14:35:31.254Z,2.20
2022-07-30T14:38:00.117Z,2.30
2022-07-30T14:40:28.286Z,2.20
2022-07-30T14:42:56.517Z,2.00
2022-07-30T14:45:26.716Z,2.20
2022-07-30T14:47:57.096Z,2.15
2022-07-30T14:50:25.296Z,2.00
2022-07-30T14:52:54.849Z,2.03
2022-07-30T14:55:23.069Z,2.13
2022-07-30T14:57:52.374Z,1.90
2022-07-30T15:00:21.350Z,1.65
2022-07-30T15:02:52.533Z,2.03
2022-07-30T15:05:20.862Z,2.25
2022-07-30T15:07:49.062Z,2.80
2022-07-30T15:10:19.083Z,1.90
2022-07-30T15:12:47.258Z,1.83
2022-07-30T15:15:16.410Z,2.00
2022-07-30T15:17:44.640Z,1.77
2022-07-30T15:20:13.718Z,1.80
2022-07-30T15:22:41.885Z,1.67
2022-07-30T15:25:10.533Z,1.88
2022-07-30T15:27:40.055Z,2.08
2022-07-30T15:30:09.396Z,1.90
2022-07-30T15:32:38.355Z,1.90
2022-07-30T15:35:11.807Z,1.75
2022-07-30T15:37:42.479Z,1.75
2022-07-30T15:40:11.650Z,1.98
2022-07-30T15:42:42.620Z,1.70
2022-07-30T15:45:17.714Z,1.92
2022-07-30T15:47:46.974Z,1.85
2022-07-30T15:50:15.426Z,1.70
2022-07-30T15:52:44.178Z,1.83
2022-07-30T15:55:13.384Z,2.17
2022-07-30T15:57:44.441Z,2.75
2022-07-30T16:00:14.119Z,2.38
2022-07-30T16:02:43.929Z,1.90
2022-07-30T16:05:14.207Z,1.75
2022-07-30T16:07:43.042Z,2.17
2022-07-30T16:10:11.681Z,2.08
2022-07-30T16:12:40.170Z,1.70
2022-07-30T16:15:11.363Z,1.85
2022-07-30T16:17:40.105Z,2.10
2022-07-30T16:20:14.316Z,1.85
2022-07-30T16:22:42.499Z,2.00
2022-07-30T16:25:11.448Z,2.05
2022-07-30T16:27:39.762Z,2.15
2022-07-30T16:30:11.192Z,1.90
2022-07-30T16:32:39.686Z,1.80
2022-07-30T16:35:13.152Z,1.88
2022-07-30T16:37:41.723Z,1.83
2022-07-30T16:40:11.600Z,1.92
2022-07-30T16:42:39.846Z,2.38
2022-07-30T16:45:10.991Z,2.30
2022-07-30T16:47:39.170Z,2.20
2022-07-30T16:50:09.258Z,2.40
2022-07-30T16:52:39.278Z,1.90
2022-07-30T16:55:28.615Z,2.00
2022-07-30T16:57:56.831Z,1.67
2022-07-30T17:00:26.744Z,1.73
2022-07-30T17:02:54.916Z,1.95
2022-07-30T17:05:25.139Z,1.70
2022-07-30T17:07:53.374Z,1.80
2022-07-30T17:10:23.557Z,1.88
2022-07-30T17:12:54.634Z,1.63
2022-07-30T17:15:32.416Z,1.70
2022-07-30T17:18:01.502Z,1.92
2022-07-30T17:20:30.062Z,1.80
2022-07-30T17:22:58.335Z,1.90
2022-07-30T17:25:27.408Z,1.85
2022-07-30T17:27:56.328Z,1.70
2022-07-30T17:30:28.264Z,2.00
2022-07-30T17:32:56.766Z,2.10
2022-07-30T17:35:26.032Z,1.80
2022-07-30T17:37:55.092Z,1.83
2022-07-30T17:40:29.820Z,1.80
2022-07-30T17:43:03.840Z,2.08
2022-07-30T17:45:35.329Z,2.20
2022-07-30T17:48:03.701Z,2.40
2022-07-30T17:50:33.318Z,2.20
2022-07-30T17:53:03.537Z,2.20
2022-07-30T17:55:57.693Z,2.20
2022-07-30T17:58:28.168Z,2.83
2022-07-30T18:01:02.989Z,2.90
2022-07-30T18:03:39.325Z,2.50
2022-07-30T18:06:21.353Z,2.80
2022-07-30T18:08:52.186Z,2.90
2022-07-30T18:11:24.446Z,3.20
2022-07-30T18:14:04.496Z,2.97
2022-07-30T18:16:36.456Z,3.38
2022-07-30T18:19:07.031Z,3.50
2022-07-30T18:21:38.603Z,2.88
2022-07-30T18:24:09.355Z,3.28
2022-07-30T18:26:44.154Z,3.63
2022-07-30T18:29:16.192Z,3.50
2022-07-30T18:31:46.606Z,3.25
2022-07-30T18:34:15.020Z,3.10
2022-07-30T18:36:43.632Z,3.35
2022-07-30T18:39:12.089Z,3.30
2022-07-30T18:41:40.467Z,3.35
2022-07-30T18:44:08.824Z,3.42
2022-07-30T18:46:37.227Z,3.20
2022-07-30T18:49:26.651Z,3.40
2022-07-30T18:51:55.479Z,3.42
2022-07-30T18:54:24.952Z,3.45
2022-07-30T18:56:53.247Z,3.50
2022-07-30T18:59:21.563Z,3.50
2022-07-30T19:01:49.941Z,3.50
2022-07-30T19:04:19.753Z,3.33
2022-07-30T19:06:48.119Z,3.33
2022-07-30T19:09:18.021Z,3.60
2022-07-30T19:11:48.219Z,3.47
2022-07-30T19:14:22.444Z,3.45
2022-07-30T19:16:54.179Z,3.78
2022-07-30T19:19:30.790Z,3.58
2022-07-30T19:22:00.654Z,3.30
2022-07-30T19:24:33.051Z,3.38
2022-07-30T19:27:03.472Z,3.50
2022-07-30T19:29:33.443Z,3.58
2022-07-30T19:32:03.991Z,3.65
2022-07-30T19:34:37.883Z,3.75
2022-07-30T19:37:11.704Z,3.72
2022-07-30T19:40:05.457Z,3.85
2022-07-30T19:42:41.341Z,3.42
2022-07-30T19:45:15.769Z,3.90
2022-07-30T19:47:49.002Z,3.78
2022-07-30T19:50:27.160Z,3.53
2022-07-30T19:53:00.404Z,3.70
2022-07-30T19:55:35.550Z,4.00
2022-07-30T19:58:15.893Z,3.60
2022-07-30T20:00:49.900Z,3.70
2022-07-30T20:03:25.928Z,3.85
2022-07-30T20:06:04.435Z,3.95
2022-07-30T20:08:40.112Z,4.20
2022-07-30T20:11:21.290Z,4.03
2022-07-30T20:14:04.671Z,4.00
2022-07-30T20:16:36.775Z,4.07
2022-07-30T20:19:08.936Z,4.00
2022-07-30T20:21:54.265Z,4.32
2022-07-30T20:24:35.290Z,4.20
2022-07-30T20:27:35.326Z,4.30
2022-07-30T20:29:52.050Z,4.22
2022-07-30T20:32:22.103Z,4.20
2022-07-30T20:34:50.822Z,4.40
2022-07-30T20:40:11.869Z,4.32
2022-07-30T20:42:42.702Z,4.50
2022-07-30T20:45:12.270Z,4.30
2022-07-30T20:47:41.965Z,4.43
2022-07-30T20:50:15.424Z,4.70
2022-07-30T20:52:48.073Z,4.22
2022-07-30T20:55:17.632Z,4.60
2022-07-30T20:58:00.221Z,4.38
2022-07-30T21:00:36.687Z,4.50
2022-07-30T21:03:05.678Z,4.47
2022-07-30T21:05:35.674Z,4.65
2022-07-30T21:08:06.145Z,4.38
2022-07-30T21:10:35.717Z,4.40
2022-07-30T21:13:07.425Z,4.60
2022-07-30T21:15:37.062Z,4.65
2022-07-30T21:18:14.467Z,4.50
2022-07-30T21:20:43.046Z,4.80
2022-07-30T21:23:22.159Z,5.05
2022-07-30T21:26:00.449Z,4.60
2022-07-30T21:28:35.853Z,5.00
2022-07-30T21:31:07.198Z,4.60
2022-07-30T21:33:36.662Z,4.75
2022-07-30T21:36:10.726Z,4.70
2022-07-30T21:38:41.818Z,4.93
2022-07-30T21:41:14.158Z,5.00
2022-07-30T21:43:44.867Z,4.95
2022-07-30T21:46:14.090Z,5.10
2022-07-30T21:48:44.167Z,4.82
2022-07-30T21:51:13.894Z,4.80
2022-07-30T21:53:45.862Z,4.82
2022-07-30T21:56:16.268Z,4.78
2022-07-30T21:58:45.634Z,5.05
2022-07-30T22:01:21.799Z,4.82
2022-07-30T22:04:01.470Z,5.10
2022-07-30T22:06:38.230Z,4.68
2022-07-30T22:09:19.108Z,4.88
2022-07-30T22:12:01.460Z,4.75
2022-07-30T22:14:31.483Z,4.90
2022-07-30T22:17:00.472Z,4.68
2022-07-30T22:19:28.864Z,4.78
2022-07-30T22:21:57.497Z,5.00
2022-07-30T22:24:31.290Z,4.80
2022-07-30T22:27:10.789Z,5.05
2022-07-30T22:29:43.481Z,4.85
2022-07-30T22:32:12.504Z,4.93
2022-07-30T22:34:41.305Z,4.82
2022-07-30T22:37:12.819Z,5.43
2022-07-30T22:39:50.574Z,4.97
2022-07-30T22:42:23.934Z,5.03
2022-07-30T22:44:54.815Z,5.45
2022-07-30T22:47:50.946Z,5.40
2022-07-30T22:50:14.682Z,5.90
2022-07-30T22:52:53.251Z,6.22
2022-07-30T22:55:38.195Z,5.07
2022-07-30T22:58:06.593Z,5.13
2022-07-30T23:00:35.276Z,4.72
2022-07-30T23:03:04.215Z,5.53
2022-07-30T23:05:36.645Z,5.20
2022-07-30T23:08:08.367Z,5.45
2022-07-30T23:10:38.047Z,5.15
2022-07-30T23:12:18.231Z,4.00
2022-07-30T23:15:36.385Z,5.20
2022-07-30T23:18:04.891Z,4.72
2022-07-30T23:20:33.357Z,5.75
2022-07-30T23:23:03.097Z,5.10
2022-07-30T23:25:38.693Z,5.78
2022-07-30T23:28:08.869Z,5.25
2022-07-30T23:30:37.199Z,5.00
2022-07-30T23:33:05.748Z,4.68
2022-07-30T23:35:34.969Z,4.82
2022-07-30T23:38:03.336Z,4.82
2022-07-30T23:40:31.812Z,5.07
2022-07-30T23:43:00.167Z,5.03
2022-07-30T23:45:30.030Z,5.45
2022-07-30T23:48:02.783Z,5.53
2022-07-30T23:50:33.306Z,6.72
2022-07-30T23:53:03.569Z,5.35
2022-07-30T23:55:33.628Z,5.15
2022-07-30T23:58:01.929Z,5.65
